createdAt,value
2017-03-10T00:00:12.401Z,0
2017-03-10T00:01:13.630Z,0
2017-03-10T00:02:13.239Z,0
2017-03-10T00:03:12.932Z,0
2017-03-10T00:04:12.936Z,0
2017-03-10T00:05:12.960Z,0
2017-03-10T00:06:12.633Z,0
2017-03-10T00:07:13.053Z,0
2017-03-10T00:08:13.893Z,0
2017-03-10T00:09:13.476Z,0
2017-03-10T00:10:14.323Z,0
2017-03-10T00:11:13.149Z,0
2017-03-10T00:12:12.833Z,0
2017-03-10T00:13:13.247Z,0
2017-03-10T00:14:13.660Z,0
2017-03-10T00:15:13.341Z,0
2017-03-10T00:16:13.382Z,0
2017-03-10T00:17:13.351Z,0
2017-03-10T00:18:13.793Z,0
2017-03-10T00:19:13.816Z,0
2017-03-10T00:20:13.075Z,0
2017-03-10T00:21:13.924Z,0
2017-03-10T00:22:13.553Z,0
2017-03-10T00:23:13.589Z,0
2017-03-10T00:24:14.042Z,0
2017-03-10T00:25:13.234Z,0
2017-03-10T00:26:13.681Z,0
2017-03-10T00:27:13.314Z,0
2017-03-10T00:28:13.754Z,0
2017-03-10T00:29:14.175Z,0
2017-03-10T00:30:14.217Z,0
2017-03-10T00:31:13.848Z,0
2017-03-10T00:32:13.892Z,0
2017-03-10T00:33:13.915Z,0
2017-03-10T00:34:13.551Z,0
2017-03-10T00:35:14.350Z,0
2017-03-10T00:36:13.639Z,0
2017-03-10T00:37:14.097Z,0
2017-03-10T00:38:14.483Z,0
2017-03-10T00:39:13.776Z,0
2017-03-10T00:40:14.542Z,0
2017-03-10T00:41:15.024Z,0
2017-03-10T00:42:14.223Z,0
2017-03-10T00:43:14.273Z,0
2017-03-10T00:44:14.287Z,0
2017-03-10T00:45:14.330Z,0
2017-03-10T00:46:14.343Z,0
2017-03-10T00:47:14.368Z,0
2017-03-10T00:48:14.791Z,0
2017-03-10T00:49:14.855Z,0
2017-03-10T00:50:14.466Z,0
2017-03-10T00:51:14.535Z,0
2017-03-10T00:52:14.962Z,0
2017-03-10T00:53:14.598Z,0
2017-03-10T00:54:14.990Z,0
2017-03-10T00:55:14.640Z,0
2017-03-10T00:56:14.690Z,0
2017-03-10T00:57:14.303Z,0
2017-03-10T00:58:14.748Z,0
2017-03-10T00:59:15.604Z,0
2017-03-10T01:00:14.402Z,0
2017-03-10T01:01:14.845Z,0
2017-03-10T01:02:14.525Z,0
2017-03-10T01:03:14.508Z,0
2017-03-10T01:04:14.970Z,0
2017-03-10T01:05:14.588Z,0
2017-03-10T01:06:14.636Z,0
2017-03-10T01:07:15.040Z,0
2017-03-10T01:08:14.701Z,0
2017-03-10T01:09:15.131Z,0
2017-03-10T01:10:15.149Z,0
2017-03-10T01:11:15.191Z,0
2017-03-10T01:12:15.844Z,0
2017-03-10T01:13:16.050Z,0
2017-03-10T01:14:15.669Z,0
2017-03-10T01:15:14.923Z,0
2017-03-10T01:16:15.347Z,0
2017-03-10T01:17:14.994Z,0
2017-03-10T01:18:15.429Z,0
2017-03-10T01:19:15.454Z,0
2017-03-10T01:20:15.093Z,0
2017-03-10T01:21:15.528Z,0
2017-03-10T01:22:15.558Z,0
2017-03-10T01:23:15.569Z,0
2017-03-10T01:24:15.622Z,0
2017-03-10T01:25:16.024Z,0
2017-03-10T01:26:15.682Z,0
2017-03-10T01:27:15.723Z,0
2017-03-10T01:28:16.149Z,0
2017-03-10T01:29:16.188Z,0
2017-03-10T01:30:15.808Z,0
2017-03-10T01:31:16.252Z,0
2017-03-10T01:32:15.490Z,0
2017-03-10T01:33:15.941Z,0
2017-03-10T01:34:16.001Z,0
2017-03-10T01:35:16.030Z,0
2017-03-10T01:36:16.033Z,0
2017-03-10T01:37:16.069Z,0
2017-03-10T01:38:16.096Z,0
2017-03-10T01:39:16.120Z,0
2017-03-10T01:40:17.333Z,0
2017-03-10T01:41:16.585Z,0
2017-03-10T01:42:16.258Z,0
2017-03-10T01:43:16.664Z,0
2017-03-10T01:44:16.289Z,0
2017-03-10T01:45:15.916Z,0
2017-03-10T01:46:15.990Z,0
2017-03-10T01:47:16.020Z,0
2017-03-10T01:48:16.448Z,0
2017-03-10T01:49:17.263Z,0
2017-03-10T01:50:16.090Z,0
2017-03-10T01:51:16.526Z,0
2017-03-10T01:52:16.957Z,0
2017-03-10T01:53:17.409Z,0
2017-03-10T01:54:17.434Z,0
2017-03-10T01:55:16.274Z,0
2017-03-10T01:56:16.703Z,0
2017-03-10T01:57:16.718Z,0
2017-03-10T01:58:16.350Z,0
2017-03-10T01:59:16.817Z,0
2017-03-10T02:00:17.237Z,0
2017-03-10T02:01:16.871Z,0
2017-03-10T02:02:16.493Z,0
2017-03-10T02:03:16.949Z,0
2017-03-10T02:04:16.943Z,0
2017-03-10T02:05:16.624Z,0
2017-03-10T02:06:17.402Z,0
2017-03-10T02:07:17.478Z,0
2017-03-10T02:08:17.485Z,0
2017-03-10T02:09:17.530Z,0
2017-03-10T02:10:17.551Z,0
2017-03-10T02:11:17.988Z,0
2017-03-10T02:12:17.628Z,0
2017-03-10T02:13:17.658Z,0
2017-03-10T02:14:17.709Z,0
2017-03-10T02:15:16.937Z,0
2017-03-10T02:16:17.755Z,0
2017-03-10T02:17:17.384Z,0
2017-03-10T02:18:17.833Z,0
2017-03-10T02:19:17.856Z,0
2017-03-10T02:20:17.116Z,0
2017-03-10T02:21:17.547Z,0
2017-03-10T02:22:17.176Z,0
2017-03-10T02:23:18.395Z,0
2017-03-10T02:24:17.669Z,0
2017-03-10T02:25:17.672Z,0
2017-03-10T02:26:18.104Z,0
2017-03-10T02:27:18.506Z,0
2017-03-10T02:28:17.375Z,0
2017-03-10T02:29:17.792Z,0
2017-03-10T02:30:17.857Z,0
2017-03-10T02:31:18.265Z,0
2017-03-10T02:32:18.273Z,0
2017-03-10T02:33:17.941Z,0
2017-03-10T02:34:17.994Z,0
2017-03-10T02:35:18.019Z,0
2017-03-10T02:36:18.026Z,0
2017-03-10T02:37:18.091Z,0
2017-03-10T02:38:18.489Z,0
2017-03-10T02:39:18.139Z,0
2017-03-10T02:40:17.804Z,0
2017-03-10T02:41:18.242Z,0
2017-03-10T02:42:18.246Z,0
2017-03-10T02:43:17.965Z,0
2017-03-10T02:44:18.716Z,0
2017-03-10T02:45:18.741Z,0
2017-03-10T02:46:18.395Z,0
2017-03-10T02:47:18.419Z,0
2017-03-10T02:48:18.847Z,0
2017-03-10T02:49:18.081Z,0
2017-03-10T02:50:18.516Z,0
2017-03-10T02:51:18.564Z,0
2017-03-10T02:52:18.976Z,0
2017-03-10T02:53:19.031Z,0
2017-03-10T02:54:19.029Z,0
2017-03-10T02:55:18.681Z,0
2017-03-10T02:56:18.324Z,0
2017-03-10T02:57:19.140Z,0
2017-03-10T02:58:19.179Z,0
2017-03-10T02:59:19.585Z,0
2017-03-10T03:00:18.864Z,0
2017-03-10T03:01:18.876Z,0
2017-03-10T03:02:18.926Z,0
2017-03-10T03:03:18.958Z,0
2017-03-10T03:04:19.395Z,0
2017-03-10T03:05:19.057Z,0
2017-03-10T03:06:19.838Z,0
2017-03-10T03:07:18.697Z,0
2017-03-10T03:08:19.542Z,0
2017-03-10T03:09:19.170Z,0
2017-03-10T03:10:19.209Z,0
2017-03-10T03:11:19.602Z,0
2017-03-10T03:12:18.859Z,0
2017-03-10T03:13:19.327Z,0
2017-03-10T03:14:19.338Z,0
2017-03-10T03:15:19.758Z,0
2017-03-10T03:16:19.794Z,0
2017-03-10T03:17:19.830Z,0
2017-03-10T03:18:19.099Z,0
2017-03-10T03:19:19.483Z,0
2017-03-10T03:20:20.287Z,0
2017-03-10T03:21:20.774Z,0
2017-03-10T03:22:19.221Z,0
2017-03-10T03:23:19.627Z,0
2017-03-10T03:24:20.052Z,0
2017-03-10T03:25:19.699Z,0
2017-03-10T03:26:19.732Z,0
2017-03-10T03:27:20.369Z,0
2017-03-10T03:28:20.600Z,0
2017-03-10T03:29:20.232Z,0
2017-03-10T03:30:20.628Z,0
2017-03-10T03:31:19.908Z,0
2017-03-10T03:32:19.919Z,0
2017-03-10T03:33:20.367Z,0
2017-03-10T03:34:20.403Z,0
2017-03-10T03:35:20.058Z,0
2017-03-10T03:36:20.046Z,0
2017-03-10T03:37:20.331Z,0
2017-03-10T03:38:20.499Z,0
2017-03-10T03:39:20.582Z,0
2017-03-10T03:40:20.581Z,0
2017-03-10T03:41:21.021Z,0
2017-03-10T03:42:20.281Z,0
2017-03-10T03:43:20.291Z,0
2017-03-10T03:44:20.722Z,0
2017-03-10T03:45:19.983Z,0
2017-03-10T03:46:20.026Z,0
2017-03-10T03:47:20.043Z,0
2017-03-10T03:48:20.066Z,0
2017-03-10T03:49:21.155Z,0
2017-03-10T03:50:20.955Z,0
2017-03-10T03:51:20.178Z,0
2017-03-10T03:52:20.983Z,0
2017-03-10T03:53:21.029Z,0
2017-03-10T03:54:20.670Z,0
2017-03-10T03:55:20.299Z,0
2017-03-10T03:56:20.721Z,0
2017-03-10T03:57:20.772Z,0
2017-03-10T03:58:20.788Z,0
2017-03-10T03:59:21.236Z,0
2017-03-10T04:00:21.243Z,0
2017-03-10T04:01:20.918Z,0
2017-03-10T04:02:20.934Z,0
2017-03-10T04:03:21.337Z,0
2017-03-10T04:04:21.774Z,0
2017-03-10T04:05:21.038Z,0
2017-03-10T04:06:21.443Z,0
2017-03-10T04:07:21.905Z,0
2017-03-10T04:08:21.527Z,0
2017-03-10T04:09:21.563Z,0
2017-03-10T04:10:20.795Z,0
2017-03-10T04:11:21.230Z,0
2017-03-10T04:12:21.277Z,0
2017-03-10T04:13:22.109Z,0
2017-03-10T04:14:21.354Z,0
2017-03-10T04:15:21.425Z,0
2017-03-10T04:16:21.624Z,0
2017-03-10T04:17:21.463Z,0
2017-03-10T04:18:21.061Z,0
2017-03-10T04:19:21.912Z,0
2017-03-10T04:20:21.145Z,0
2017-03-10T04:21:21.980Z,0
2017-03-10T04:22:22.037Z,0
2017-03-10T04:23:22.052Z,0
2017-03-10T04:24:21.654Z,0
2017-03-10T04:25:21.710Z,0
2017-03-10T04:26:22.157Z,0
2017-03-10T04:27:22.162Z,0
2017-03-10T04:28:22.599Z,0
2017-03-10T04:29:22.634Z,0
2017-03-10T04:30:22.262Z,0
2017-03-10T04:31:22.683Z,0
2017-03-10T04:32:22.729Z,0
2017-03-10T04:33:21.958Z,0
2017-03-10T04:34:22.011Z,0
2017-03-10T04:35:22.417Z,0
2017-03-10T04:36:22.458Z,0
2017-03-10T04:37:22.086Z,0
2017-03-10T04:38:22.541Z,0
2017-03-10T04:39:21.785Z,0
2017-03-10T04:40:22.224Z,0
2017-03-10T04:41:23.017Z,0
2017-03-10T04:42:22.692Z,0
2017-03-10T04:43:22.305Z,0
2017-03-10T04:44:22.751Z,0
2017-03-10T04:45:22.768Z,0
2017-03-10T04:46:22.413Z,0
2017-03-10T04:47:22.817Z,0
2017-03-10T04:48:23.268Z,0
2017-03-10T04:49:22.946Z,0
2017-03-10T04:50:22.572Z,0
2017-03-10T04:51:23.330Z,0
2017-03-10T04:52:22.607Z,0
2017-03-10T04:53:23.447Z,0
2017-03-10T04:54:22.862Z,0
2017-03-10T04:55:22.714Z,0
2017-03-10T04:56:22.722Z,0
2017-03-10T04:57:22.812Z,0
2017-03-10T04:58:23.204Z,0
2017-03-10T04:59:22.460Z,0
2017-03-10T05:00:23.275Z,0
2017-03-10T05:01:22.907Z,0
2017-03-10T05:02:22.537Z,0
2017-03-10T05:03:23.372Z,0
2017-03-10T05:04:23.795Z,0
2017-03-10T05:05:23.428Z,0
2017-03-10T05:06:23.060Z,0
2017-03-10T05:07:23.122Z,0
2017-03-10T05:08:22.763Z,0
2017-03-10T05:09:23.184Z,0
2017-03-10T05:10:23.616Z,0
2017-03-10T05:11:23.629Z,0
2017-03-10T05:12:23.275Z,0
2017-03-10T05:13:23.726Z,0
2017-03-10T05:14:22.960Z,0
2017-03-10T05:15:23.786Z,0
2017-03-10T05:16:23.408Z,0
2017-03-10T05:17:24.229Z,0
2017-03-10T05:18:24.250Z,0
2017-03-10T05:19:23.915Z,0
2017-03-10T05:20:23.538Z,0
2017-03-10T05:21:23.585Z,0
2017-03-10T05:22:23.190Z,0
2017-03-10T05:23:24.425Z,0
2017-03-10T05:24:23.659Z,0
2017-03-10T05:25:24.115Z,0
2017-03-10T05:26:23.333Z,0
2017-03-10T05:27:23.794Z,0
2017-03-10T05:28:23.806Z,0
2017-03-10T05:29:24.059Z,0
2017-03-10T05:30:24.656Z,0
2017-03-10T05:31:24.335Z,0
2017-03-10T05:32:23.543Z,0
2017-03-10T05:33:24.384Z,0
2017-03-10T05:34:23.619Z,0
2017-03-10T05:35:24.046Z,0
2017-03-10T05:36:24.462Z,0
2017-03-10T05:37:24.102Z,0
2017-03-10T05:38:24.529Z,0
2017-03-10T05:39:24.541Z,0
2017-03-10T05:40:24.226Z,0
2017-03-10T05:41:24.215Z,0
2017-03-10T05:42:24.653Z,0
2017-03-10T05:43:24.705Z,0
2017-03-10T05:44:23.937Z,0
2017-03-10T05:45:23.971Z,0
2017-03-10T05:46:24.766Z,0
2017-03-10T05:47:24.807Z,0
2017-03-10T05:48:24.458Z,0
2017-03-10T05:49:24.865Z,0
2017-03-10T05:50:24.538Z,0
2017-03-10T05:51:24.556Z,0
2017-03-10T05:52:24.588Z,0
2017-03-10T05:53:24.222Z,0
2017-03-10T05:54:24.648Z,0
2017-03-10T05:55:24.695Z,0
2017-03-10T05:56:24.721Z,0
2017-03-10T05:57:24.769Z,0
2017-03-10T05:58:25.190Z,0
2017-03-10T05:59:24.819Z,5
2017-03-10T06:00:25.236Z,5
2017-03-10T06:01:25.273Z,5
2017-03-10T06:02:24.936Z,5
2017-03-10T06:03:25.372Z,5
2017-03-10T06:04:25.758Z,5
2017-03-10T06:05:24.626Z,5
2017-03-10T06:06:25.442Z,5
2017-03-10T06:07:25.517Z,5
2017-03-10T06:08:25.543Z,5
2017-03-10T06:09:25.162Z,10
2017-03-10T06:10:25.246Z,5
2017-03-10T06:11:26.001Z,10
2017-03-10T06:12:26.054Z,10
2017-03-10T06:13:25.297Z,10
2017-03-10T06:14:24.918Z,10
2017-03-10T06:15:25.749Z,10
2017-03-10T06:16:25.362Z,10
2017-03-10T06:17:25.417Z,10
2017-03-10T06:18:25.856Z,10
2017-03-10T06:19:25.106Z,10
2017-03-10T06:20:25.907Z,10
2017-03-10T06:21:25.546Z,10
2017-03-10T06:22:25.178Z,10
2017-03-10T06:23:25.601Z,15
2017-03-10T06:24:25.258Z,15
2017-03-10T06:25:25.655Z,15
2017-03-10T06:26:25.695Z,10
2017-03-10T06:27:25.762Z,10
2017-03-10T06:28:25.381Z,10
2017-03-10T06:29:25.826Z,15
2017-03-10T06:30:25.881Z,15
2017-03-10T06:31:25.896Z,15
2017-03-10T06:32:25.913Z,10
2017-03-10T06:33:25.933Z,10
2017-03-10T06:34:26.380Z,10
2017-03-10T06:35:26.492Z,15
2017-03-10T06:36:26.452Z,15
2017-03-10T06:37:26.077Z,15
2017-03-10T06:38:26.503Z,15
2017-03-10T06:39:25.783Z,15
2017-03-10T06:40:25.765Z,15
2017-03-10T06:41:26.848Z,15
2017-03-10T06:42:26.264Z,15
2017-03-10T06:43:26.654Z,15
2017-03-10T06:44:26.283Z,15
2017-03-10T06:45:26.336Z,15
2017-03-10T06:46:26.764Z,15
2017-03-10T06:47:26.391Z,20
2017-03-10T06:48:26.049Z,15
2017-03-10T06:49:26.446Z,15
2017-03-10T06:50:26.095Z,15
2017-03-10T06:51:26.902Z,15
2017-03-10T06:52:27.351Z,15
2017-03-10T06:53:26.964Z,15
2017-03-10T06:54:26.256Z,15
2017-03-10T06:55:26.693Z,15
2017-03-10T06:56:26.702Z,15
2017-03-10T06:57:26.327Z,15
2017-03-10T06:58:27.531Z,15
2017-03-10T06:59:27.253Z,15
2017-03-10T07:00:26.429Z,20
2017-03-10T07:01:27.624Z,20
2017-03-10T07:02:26.494Z,20
2017-03-10T07:03:27.061Z,20
2017-03-10T07:04:27.414Z,20
2017-03-10T07:05:27.830Z,20
2017-03-10T07:06:27.727Z,20
2017-03-10T07:07:26.657Z,20
2017-03-10T07:08:28.791Z,20
2017-03-10T07:09:27.544Z,20
2017-03-10T07:10:27.173Z,20
2017-03-10T07:11:26.774Z,20
2017-03-10T07:12:27.627Z,20
2017-03-10T07:13:28.015Z,20
2017-03-10T07:14:27.724Z,20
2017-03-10T07:15:27.302Z,20
2017-03-10T07:16:27.766Z,25
2017-03-10T07:17:28.160Z,20
2017-03-10T07:18:27.800Z,20
2017-03-10T07:19:27.817Z,20
2017-03-10T07:20:28.292Z,25
2017-03-10T07:21:27.912Z,25
2017-03-10T07:22:27.525Z,30
2017-03-10T07:23:27.971Z,25
2017-03-10T07:24:27.622Z,25
2017-03-10T07:25:27.633Z,30
2017-03-10T07:26:28.508Z,30
2017-03-10T07:27:27.818Z,30
2017-03-10T07:28:28.894Z,35
2017-03-10T07:29:28.161Z,35
2017-03-10T07:30:28.638Z,30
2017-03-10T07:31:27.880Z,30
2017-03-10T07:32:27.926Z,30
2017-03-10T07:33:27.939Z,30
2017-03-10T07:34:28.333Z,30
2017-03-10T07:35:27.958Z,30
2017-03-10T07:36:27.622Z,35
2017-03-10T07:37:28.049Z,30
2017-03-10T07:38:28.459Z,30
2017-03-10T07:39:27.730Z,40
2017-03-10T07:40:27.786Z,40
2017-03-10T07:41:28.170Z,35
2017-03-10T07:42:28.210Z,40
2017-03-10T07:43:27.837Z,35
2017-03-10T07:44:27.879Z,35
2017-03-10T07:45:28.722Z,45
2017-03-10T07:46:28.339Z,45
2017-03-10T07:47:28.379Z,50
2017-03-10T07:48:28.456Z,50
2017-03-10T07:49:28.852Z,55
2017-03-10T07:50:28.478Z,50
2017-03-10T07:51:28.903Z,60
2017-03-10T07:52:28.278Z,65
2017-03-10T07:53:28.582Z,60
2017-03-10T07:54:28.589Z,65
2017-03-10T07:55:28.634Z,75
2017-03-10T07:56:28.275Z,65
2017-03-10T07:57:28.730Z,75
2017-03-10T07:58:29.145Z,75
2017-03-10T07:59:29.211Z,75
2017-03-10T08:00:28.422Z,75
2017-03-10T08:01:29.231Z,65
2017-03-10T08:02:28.461Z,65
2017-03-10T08:03:28.506Z,65
2017-03-10T08:04:28.933Z,65
2017-03-10T08:05:28.990Z,65
2017-03-10T08:06:29.019Z,65
2017-03-10T08:07:29.030Z,65
2017-03-10T08:08:29.057Z,65
2017-03-10T08:09:29.117Z,70
2017-03-10T08:10:29.506Z,75
2017-03-10T08:11:29.573Z,75
2017-03-10T08:12:29.589Z,80
2017-03-10T08:13:28.828Z,80
2017-03-10T08:14:29.644Z,85
2017-03-10T08:15:29.731Z,90
2017-03-10T08:16:29.315Z,95
2017-03-10T08:17:29.812Z,95
2017-03-10T08:18:29.423Z,85
2017-03-10T08:19:29.841Z,85
2017-03-10T08:20:29.875Z,80
2017-03-10T08:21:30.329Z,75
2017-03-10T08:22:29.542Z,75
2017-03-10T08:23:29.227Z,80
2017-03-10T08:24:29.605Z,90
2017-03-10T08:25:29.634Z,100
2017-03-10T08:26:30.090Z,120
2017-03-10T08:27:29.718Z,120
2017-03-10T08:28:29.753Z,100
2017-03-10T08:29:29.371Z,90
2017-03-10T08:30:29.863Z,100
2017-03-10T08:31:29.847Z,110
2017-03-10T08:32:29.863Z,125
2017-03-10T08:33:30.696Z,135
2017-03-10T08:34:29.931Z,135
2017-03-10T08:35:29.960Z,140
2017-03-10T08:36:30.001Z,155
2017-03-10T08:37:31.048Z,160
2017-03-10T08:38:30.070Z,135
2017-03-10T08:39:30.993Z,125
2017-03-10T08:40:30.126Z,120
2017-03-10T08:41:30.168Z,135
2017-03-10T08:42:29.811Z,145
2017-03-10T08:43:29.851Z,170
2017-03-10T08:44:30.285Z,215
2017-03-10T08:45:29.897Z,240
2017-03-10T08:46:30.341Z,230
2017-03-10T08:47:30.767Z,305
2017-03-10T08:48:30.427Z,335
2017-03-10T08:49:30.488Z,275
2017-03-10T08:50:30.478Z,130
2017-03-10T08:51:30.118Z,90
2017-03-10T08:52:30.918Z,90
2017-03-10T08:53:30.571Z,105
2017-03-10T08:54:30.606Z,155
2017-03-10T08:55:30.230Z,280
2017-03-10T08:56:30.675Z,405
2017-03-10T08:57:30.317Z,655
2017-03-10T08:58:32.093Z,580
2017-03-10T08:59:30.799Z,650
2017-03-10T09:00:30.879Z,560
2017-03-10T09:01:30.844Z,480
2017-03-10T09:02:30.511Z,460
2017-03-10T09:03:30.950Z,465
2017-03-10T09:04:31.331Z,425
2017-03-10T09:05:31.407Z,315
2017-03-10T09:06:30.622Z,370
2017-03-10T09:07:30.678Z,475
2017-03-10T09:08:30.732Z,645
2017-03-10T09:09:31.175Z,660
2017-03-10T09:10:30.799Z,540
2017-03-10T09:11:30.884Z,560
2017-03-10T09:12:31.675Z,735
2017-03-10T09:13:31.301Z,420
2017-03-10T09:14:31.298Z,1275
2017-03-10T09:15:31.349Z,775
2017-03-10T09:16:31.394Z,355
2017-03-10T09:17:31.456Z,275
2017-03-10T09:18:31.865Z,360
2017-03-10T09:19:31.568Z,320
2017-03-10T09:20:31.546Z,350
2017-03-10T09:21:31.169Z,310
2017-03-10T09:22:31.691Z,375
2017-03-10T09:23:31.343Z,740
2017-03-10T09:24:31.316Z,335
2017-03-10T09:25:31.760Z,205
2017-03-10T09:26:31.765Z,210
2017-03-10T09:27:32.306Z,280
2017-03-10T09:28:31.856Z,270
2017-03-10T09:29:31.923Z,315
2017-03-10T09:30:32.298Z,250
2017-03-10T09:31:31.948Z,245
2017-03-10T09:32:32.378Z,370
2017-03-10T09:33:32.254Z,475
2017-03-10T09:34:32.053Z,925
2017-03-10T09:35:32.081Z,595
2017-03-10T09:36:32.501Z,590
2017-03-10T09:37:32.176Z,565
2017-03-10T09:38:31.808Z,580
2017-03-10T09:39:31.865Z,470
2017-03-10T09:40:32.673Z,485
2017-03-10T09:41:32.689Z,485
2017-03-10T09:42:32.745Z,455
2017-03-10T09:43:33.183Z,390
2017-03-10T09:44:32.411Z,365
2017-03-10T09:45:32.474Z,415
2017-03-10T09:46:32.494Z,410
2017-03-10T09:47:32.528Z,405
2017-03-10T09:48:32.572Z,390
2017-03-10T09:49:33.002Z,400
2017-03-10T09:50:33.046Z,390
2017-03-10T09:51:32.679Z,440
2017-03-10T09:52:32.752Z,470
2017-03-10T09:53:33.154Z,375
2017-03-10T09:54:32.442Z,275
2017-03-10T09:55:32.439Z,245
2017-03-10T09:56:32.466Z,230
2017-03-10T09:57:32.927Z,205
2017-03-10T09:58:32.947Z,170
2017-03-10T09:59:32.608Z,155
2017-03-10T10:00:32.622Z,150
2017-03-10T10:01:33.436Z,180
2017-03-10T10:02:33.462Z,170
2017-03-10T10:03:33.154Z,165
2017-03-10T10:04:33.154Z,165
2017-03-10T10:05:33.597Z,175
2017-03-10T10:06:34.051Z,195
2017-03-10T10:07:33.435Z,205
2017-03-10T10:08:33.303Z,210
2017-03-10T10:09:32.955Z,205
2017-03-10T10:10:33.383Z,200
2017-03-10T10:11:33.010Z,220
2017-03-10T10:12:33.868Z,205
2017-03-10T10:13:33.734Z,190
2017-03-10T10:14:33.922Z,175
2017-03-10T10:15:33.544Z,160
2017-03-10T10:16:33.205Z,140
2017-03-10T10:17:33.259Z,130
2017-03-10T10:18:33.691Z,125
2017-03-10T10:19:33.707Z,145
2017-03-10T10:20:33.868Z,120
2017-03-10T10:21:34.202Z,115
2017-03-10T10:22:33.797Z,95
2017-03-10T10:23:33.897Z,90
2017-03-10T10:24:33.485Z,110
2017-03-10T10:25:34.708Z,145
2017-03-10T10:26:33.954Z,160
2017-03-10T10:27:34.404Z,180
2017-03-10T10:28:34.422Z,230
2017-03-10T10:29:34.487Z,260
2017-03-10T10:30:34.082Z,220
2017-03-10T10:31:34.542Z,250
2017-03-10T10:32:34.167Z,220
2017-03-10T10:33:33.807Z,250
2017-03-10T10:34:34.716Z,260
2017-03-10T10:35:34.676Z,235
2017-03-10T10:36:34.327Z,240
2017-03-10T10:37:34.346Z,235
2017-03-10T10:38:34.389Z,220
2017-03-10T10:39:34.441Z,210
2017-03-10T10:40:34.458Z,220
2017-03-10T10:41:34.887Z,190
2017-03-10T10:42:34.920Z,220
2017-03-10T10:43:34.960Z,280
2017-03-10T10:44:34.218Z,270
2017-03-10T10:45:35.071Z,245
2017-03-10T10:46:34.287Z,545
2017-03-10T10:47:35.121Z,340
2017-03-10T10:48:35.349Z,460
2017-03-10T10:49:34.800Z,445
2017-03-10T10:50:34.413Z,415
2017-03-10T10:51:34.874Z,405
2017-03-10T10:52:34.888Z,420
2017-03-10T10:53:34.603Z,430
2017-03-10T10:54:35.354Z,630
2017-03-10T10:55:35.379Z,1530
2017-03-10T10:56:35.420Z,545
2017-03-10T10:57:34.672Z,355
2017-03-10T10:58:35.665Z,285
2017-03-10T10:59:34.754Z,245
2017-03-10T11:00:34.817Z,195
2017-03-10T11:01:35.607Z,160
2017-03-10T11:02:34.896Z,200
2017-03-10T11:03:35.288Z,205
2017-03-10T11:04:35.356Z,245
2017-03-10T11:05:35.365Z,325
2017-03-10T11:06:35.408Z,360
2017-03-10T11:07:35.484Z,255
2017-03-10T11:08:35.084Z,340
2017-03-10T11:09:35.124Z,545
2017-03-10T11:10:35.557Z,565
2017-03-10T11:11:35.601Z,755
2017-03-10T11:12:36.019Z,750
2017-03-10T11:13:35.687Z,885
2017-03-10T11:14:36.489Z,970
2017-03-10T11:15:36.120Z,545
2017-03-10T11:16:36.199Z,330
2017-03-10T11:17:35.834Z,300
2017-03-10T11:18:35.505Z,190
2017-03-10T11:19:35.905Z,225
2017-03-10T11:20:35.933Z,240
2017-03-10T11:21:35.592Z,240
2017-03-10T11:22:36.051Z,250
2017-03-10T11:23:36.437Z,305
2017-03-10T11:24:35.697Z,280
2017-03-10T11:25:36.156Z,275
2017-03-10T11:26:36.182Z,290
2017-03-10T11:27:36.237Z,305
2017-03-10T11:28:36.656Z,380
2017-03-10T11:29:36.353Z,410
2017-03-10T11:30:36.715Z,410
2017-03-10T11:31:35.989Z,405
2017-03-10T11:32:37.186Z,435
2017-03-10T11:33:36.096Z,390
2017-03-10T11:34:36.856Z,380
2017-03-10T11:35:36.511Z,390
2017-03-10T11:36:36.548Z,405
2017-03-10T11:37:36.590Z,390
2017-03-10T11:38:37.004Z,445
2017-03-10T11:39:37.031Z,550
2017-03-10T11:40:36.324Z,410
2017-03-10T11:41:37.145Z,485
2017-03-10T11:42:37.187Z,470
2017-03-10T11:43:36.813Z,530
2017-03-10T11:44:37.677Z,460
2017-03-10T11:45:36.496Z,515
2017-03-10T11:46:36.931Z,455
2017-03-10T11:47:37.397Z,480
2017-03-10T11:48:37.185Z,435
2017-03-10T11:49:37.434Z,490
2017-03-10T11:50:37.473Z,475
2017-03-10T11:51:37.137Z,475
2017-03-10T11:52:38.290Z,475
2017-03-10T11:53:37.574Z,495
2017-03-10T11:54:37.237Z,415
2017-03-10T11:55:36.896Z,410
2017-03-10T11:56:36.963Z,360
2017-03-10T11:57:36.963Z,320
2017-03-10T11:58:37.461Z,330
2017-03-10T11:59:37.457Z,335
2017-03-10T12:00:37.113Z,335
2017-03-10T12:01:37.556Z,320
2017-03-10T12:02:37.176Z,285
2017-03-10T12:03:37.972Z,225
2017-03-10T12:04:37.629Z,195
2017-03-10T12:05:37.650Z,175
2017-03-10T12:06:38.112Z,195
2017-03-10T12:07:38.123Z,215
2017-03-10T12:08:38.173Z,230
2017-03-10T12:09:38.983Z,245
2017-03-10T12:10:37.916Z,275
2017-03-10T12:11:37.889Z,275
2017-03-10T12:12:38.317Z,265
2017-03-10T12:13:38.362Z,255
2017-03-10T12:14:37.625Z,240
2017-03-10T12:15:38.279Z,240
2017-03-10T12:16:38.077Z,245
2017-03-10T12:17:38.136Z,260
2017-03-10T12:18:38.159Z,265
2017-03-10T12:19:38.200Z,270
2017-03-10T12:20:38.239Z,305
2017-03-10T12:21:38.277Z,315
2017-03-10T12:22:37.894Z,295
2017-03-10T12:23:39.145Z,295
2017-03-10T12:24:38.382Z,290
2017-03-10T12:25:38.021Z,300
2017-03-10T12:26:38.447Z,270
2017-03-10T12:27:39.679Z,275
2017-03-10T12:28:38.546Z,275
2017-03-10T12:29:38.192Z,265
2017-03-10T12:30:38.610Z,235
2017-03-10T12:31:39.423Z,255
2017-03-10T12:32:39.054Z,280
2017-03-10T12:33:39.502Z,285
2017-03-10T12:34:38.366Z,305
2017-03-10T12:35:39.603Z,280
2017-03-10T12:36:39.218Z,245
2017-03-10T12:37:38.866Z,240
2017-03-10T12:38:39.313Z,260
2017-03-10T12:39:39.793Z,265
2017-03-10T12:40:39.398Z,275
2017-03-10T12:41:38.612Z,275
2017-03-10T12:42:39.423Z,280
2017-03-10T12:43:38.695Z,295
2017-03-10T12:44:39.131Z,295
2017-03-10T12:45:39.945Z,310
2017-03-10T12:46:38.950Z,325
2017-03-10T12:47:39.653Z,360
2017-03-10T12:48:39.663Z,350
2017-03-10T12:49:39.693Z,335
2017-03-10T12:50:39.331Z,280
2017-03-10T12:51:39.391Z,245
2017-03-10T12:52:39.870Z,230
2017-03-10T12:53:39.507Z,235
2017-03-10T12:54:39.929Z,240
2017-03-10T12:55:39.546Z,270
2017-03-10T12:56:39.984Z,275
2017-03-10T12:57:39.611Z,290
2017-03-10T12:58:40.059Z,270
2017-03-10T12:59:40.893Z,260
2017-03-10T13:00:39.337Z,275
2017-03-10T13:01:40.189Z,285
2017-03-10T13:02:39.819Z,250
2017-03-10T13:03:39.855Z,185
2017-03-10T13:04:40.314Z,180
2017-03-10T13:05:39.929Z,195
2017-03-10T13:06:39.965Z,245
2017-03-10T13:07:40.542Z,300
2017-03-10T13:08:39.656Z,305
2017-03-10T13:09:40.294Z,285
2017-03-10T13:10:40.529Z,270
2017-03-10T13:11:40.652Z,230
2017-03-10T13:12:39.845Z,195
2017-03-10T13:13:40.612Z,175
2017-03-10T13:14:40.735Z,165
2017-03-10T13:15:40.456Z,180
2017-03-10T13:16:40.742Z,180
2017-03-10T13:17:40.783Z,175
2017-03-10T13:18:40.806Z,175
2017-03-10T13:19:40.433Z,175
2017-03-10T13:20:41.266Z,160
2017-03-10T13:21:40.563Z,150
2017-03-10T13:22:40.730Z,190
2017-03-10T13:23:40.591Z,225
2017-03-10T13:24:40.429Z,240
2017-03-10T13:25:41.039Z,240
2017-03-10T13:26:40.714Z,245
2017-03-10T13:27:40.352Z,245
2017-03-10T13:28:40.762Z,245
2017-03-10T13:29:40.824Z,240
2017-03-10T13:30:40.887Z,225
2017-03-10T13:31:40.923Z,225
2017-03-10T13:32:40.935Z,210
2017-03-10T13:33:42.765Z,170
2017-03-10T13:34:41.608Z,145
2017-03-10T13:35:41.436Z,110
2017-03-10T13:36:41.080Z,95
2017-03-10T13:37:41.492Z,85
2017-03-10T13:38:41.174Z,75
2017-03-10T13:39:40.812Z,85
2017-03-10T13:40:42.011Z,90
2017-03-10T13:41:42.057Z,105
2017-03-10T13:42:42.487Z,115
2017-03-10T13:43:41.964Z,125
2017-03-10T13:44:41.390Z,145
2017-03-10T13:45:41.015Z,160
2017-03-10T13:46:41.450Z,160
2017-03-10T13:47:41.484Z,165
2017-03-10T13:48:41.548Z,165
2017-03-10T13:49:41.719Z,160
2017-03-10T13:50:41.974Z,155
2017-03-10T13:51:42.014Z,155
2017-03-10T13:52:41.674Z,165
2017-03-10T13:53:41.713Z,160
2017-03-10T13:54:42.549Z,145
2017-03-10T13:55:42.167Z,120
2017-03-10T13:56:41.811Z,105
2017-03-10T13:57:42.310Z,85
2017-03-10T13:58:42.270Z,70
2017-03-10T13:59:41.559Z,60
2017-03-10T14:00:42.372Z,50
2017-03-10T14:01:42.014Z,50
2017-03-10T14:02:41.702Z,45
2017-03-10T14:03:42.462Z,55
2017-03-10T14:04:42.893Z,60
2017-03-10T14:05:42.595Z,60
2017-03-10T14:06:41.779Z,55
2017-03-10T14:07:42.627Z,55
2017-03-10T14:08:42.249Z,55
2017-03-10T14:09:42.309Z,55
2017-03-10T14:10:43.100Z,50
2017-03-10T14:11:43.160Z,45
2017-03-10T14:12:42.384Z,50
2017-03-10T14:13:42.827Z,60
2017-03-10T14:14:42.467Z,65
2017-03-10T14:15:42.102Z,75
2017-03-10T14:16:42.181Z,80
2017-03-10T14:17:42.801Z,75